Time;durP1;ratioP1;P1;durP2;ratioP2;P2;SDS_P1;SDS_P2;PMS_P1;PMS_P2;Temp;Humidity;BMP_temperature;BMP_pressure;BME280_temperature;BME280_humidity;BME280_pressure;Samples;Min_cycle;Max_cycle;Signal;HPM_P1;HPM_P2
2022/01/17 00:07:00;;;;;;;63.08;26.70;;;;;;;2.07;99.70;102091.34;20786409;28;20172;-71
2022/01/17 00:17:28;;;;;;;61.13;25.00;;;;;;;2.02;99.42;102088.53;20785763;28;20111;-72
2022/01/17 00:27:31;;;;;;;61.38;26.10;;;;;;;2.04;98.83;102085.19;20782800;28;20045;-72
2022/01/17 00:37:32;;;;;;;58.13;24.98;;;;;;;2.04;99.19;102077.44;20782289;28;20073;-73
2022/01/17 00:47:34;;;;;;;60.47;25.58;;;;;;;2.07;99.40;102076.72;20783116;28;20081;-72
2022/01/17 00:57:36;;;;;;;51.63;24.05;;;;;;;2.05;98.70;102068.88;20783167;28;20080;-72
2022/01/17 01:07:37;;;;;;;55.90;23.75;;;;;;;2.03;99.71;102085.13;20783257;28;20080;-72
2022/01/17 01:17:56;;;;;;;59.75;23.80;;;;;;;2.01;98.78;102092.81;20782443;28;20088;-71
2022/01/17 01:27:58;;;;;;;58.67;23.83;;;;;;;1.94;98.32;102093.34;20781397;28;20045;-71
2022/01/17 01:38:00;;;;;;;55.90;23.10;;;;;;;1.83;98.92;102096.25;20780673;28;20054;-71
2022/01/17 01:48:02;;;;;;;58.58;23.52;;;;;;;1.78;99.33;102089.16;20779618;28;20111;-71
2022/01/17 01:58:04;;;;;;;54.85;22.70;;;;;;;1.74;100.00;102096.69;20777718;28;20049;-71
2022/01/17 02:08:09;;;;;;;56.10;22.05;;;;;;;1.79;99.51;102085.75;20777201;28;20487;-72
2022/01/17 02:18:12;;;;;;;59.50;23.75;;;;;;;1.82;98.46;102085.03;20777110;28;20054;-72
2022/01/17 02:28:14;;;;;;;60.37;23.43;;;;;;;1.81;98.42;102116.81;20773518;28;20106;-71
2022/01/17 02:38:15;;;;;;;59.38;22.35;;;;;;;1.85;97.53;102120.44;20765256;28;20053;-71
2022/01/17 02:48:19;;;;;;;54.67;21.23;;;;;;;1.82;98.85;102104.78;20766878;28;20548;-71
2022/01/17 02:58:24;;;;;;;56.10;21.53;;;;;;;1.73;98.44;102131.97;20775414;28;20140;-71
2022/01/17 03:08:29;;;;;;;50.80;20.80;;;;;;;1.66;98.99;102110.91;20783056;28;20545;-70
2022/01/17 03:18:36;;;;;;;51.50;20.98;;;;;;;1.68;98.49;102092.13;20792250;28;20049;-71
2022/01/17 03:28:39;;;;;;;60.60;20.58;;;;;;;1.72;99.44;102081.09;20790794;28;20098;-70
2022/01/17 03:38:42;;;;;;;54.08;20.92;;;;;;;1.84;98.99;102118.66;20789727;28;20407;-71
2022/01/17 03:48:44;;;;;;;47.67;19.77;;;;;;;1.76;98.43;102132.09;20786852;28;20057;-70
2022/01/17 03:58:46;;;;;;;44.05;18.58;;;;;;;1.79;98.54;102139.09;20786156;28;20050;-71
2022/01/17 04:08:48;;;;;;;46.05;19.50;;;;;;;1.86;98.77;102117.03;20786170;28;20149;-71
2022/01/17 04:18:49;;;;;;;42.20;17.55;;;;;;;1.87;98.32;102098.13;20786034;28;20112;-70
2022/01/17 04:28:51;;;;;;;44.13;19.35;;;;;;;1.74;98.80;102112.19;20786392;28;20099;-70
2022/01/17 04:38:52;;;;;;;46.22;17.13;;;;;;;1.83;98.80;102104.88;20776468;28;20053;-71
2022/01/17 04:48:54;;;;;;;38.40;15.82;;;;;;;1.76;99.48;102103.69;20784775;28;20045;-70
2022/01/17 04:58:55;;;;;;;38.67;16.77;;;;;;;1.76;99.72;102116.59;20784054;28;20053;-70
2022/01/17 05:08:58;;;;;;;37.78;16.85;;;;;;;1.86;99.60;102114.44;20774256;28;20450;-70
2022/01/17 05:29:20;;;;;;;35.88;17.10;;;;;;;1.91;99.43;102121.59;20779352;28;20049;-70
2022/01/17 05:39:22;;;;;;;35.63;16.40;;;;;;;1.90;99.67;102130.16;20779617;28;20053;-71
2022/01/17 05:49:23;;;;;;;36.90;16.73;;;;;;;1.84;100.00;102095.44;20778654;28;20050;-70
2022/01/17 05:59:25;;;;;;;40.65;16.50;;;;;;;1.81;100.00;102083.25;20777400;28;20119;-71
2022/01/17 06:09:27;;;;;;;41.42;17.25;;;;;;;1.93;100.00;102096.75;20777915;28;20386;-70
2022/01/17 06:19:29;;;;;;;42.22;17.05;;;;;;;1.88;100.00;102138.66;20778378;28;20549;-70
2022/01/17 06:29:31;;;;;;;39.58;17.92;;;;;;;1.89;100.00;102130.09;20776786;28;20053;-70
2022/01/17 06:39:33;;;;;;;37.50;16.35;;;;;;;1.91;99.57;102159.44;20774306;28;20054;-71
2022/01/17 06:49:35;;;;;;;34.63;15.50;;;;;;;1.88;100.00;102193.78;20771579;28;20096;-71
2022/01/17 06:59:36;;;;;;;35.70;15.63;;;;;;;1.96;100.00;102186.38;20775386;28;20042;-71
2022/01/17 07:09:38;;;;;;;37.50;15.73;;;;;;;1.99;100.00;102145.22;20757411;28;20050;-71
2022/01/17 07:19:40;;;;;;;36.70;15.40;;;;;;;1.93;100.00;102194.00;20770995;28;20769;-71
2022/01/17 07:29:42;;;;;;;31.67;14.38;;;;;;;1.91;100.00;102213.69;20774857;28;20062;-71
2022/01/17 07:39:44;;;;;;;36.70;15.70;;;;;;;1.93;100.00;102191.44;20766177;28;20561;-71
2022/01/17 07:49:46;;;;;;;35.20;15.88;;;;;;;1.89;100.00;102217.91;20773558;28;20593;-71
2022/01/17 08:00:10;;;;;;;38.45;16.38;;;;;;;1.95;100.00;102226.84;20729575;28;20133;-71
2022/01/17 08:10:13;;;;;;;40.15;15.82;;;;;;;1.98;100.00;102224.41;20723313;28;20053;-71
2022/01/17 08:20:15;;;;;;;39.17;17.05;;;;;;;2.08;100.00;102243.81;20728990;28;20041;-71
2022/01/17 08:30:17;;;;;;;35.42;16.98;;;;;;;2.17;100.00;102258.91;20774687;28;20060;-71
2022/01/17 08:40:39;;;;;;;39.88;15.15;;;;;;;2.21;100.00;102256.53;20775004;28;20084;-71
2022/01/17 08:50:41;;;;;;;36.00;15.98;;;;;;;2.35;99.93;102230.44;20777207;28;20119;-70
2022/01/17 09:00:44;;;;;;;38.33;16.08;;;;;;;2.28;100.00;102232.75;20774059;28;20058;-71
2022/01/17 09:10:57;;;;;;;34.35;15.68;;;;;;;2.33;100.00;102271.72;20775325;28;20057;-70
2022/01/17 09:20:59;;;;;;;35.60;16.20;;;;;;;2.37;100.00;102302.09;20774027;28;20081;-70
2022/01/17 09:31:01;;;;;;;40.50;17.27;;;;;;;2.31;100.00;102294.94;20771818;28;20064;-70
2022/01/17 09:41:03;;;;;;;36.65;16.05;;;;;;;2.42;100.00;102328.16;20772862;28;20061;-71
2022/01/17 09:51:38;;;;;;;37.95;16.27;;;;;;;2.67;99.53;102331.09;20765827;28;20084;-69
2022/01/17 10:01:41;;;;;;;35.45;16.65;;;;;;;2.93;99.00;102315.94;20764828;28;20045;-70
2022/01/17 10:12:05;;;;;;;35.97;17.02;;;;;;;3.04;98.71;102343.16;20768009;28;20077;-69
2022/01/17 10:22:15;;;;;;;29.77;13.73;;;;;;;3.06;97.91;102352.75;20768789;28;20052;-69
2022/01/17 10:42:47;;;;;;;31.48;13.93;;;;;;;3.07;98.16;102338.16;20769160;28;20088;-70
2022/01/17 10:52:56;;;;;;;27.20;12.55;;;;;;;3.30;97.51;102353.00;20769941;28;20048;-69
2022/01/17 11:03:01;;;;;;;28.20;13.35;;;;;;;3.45;95.98;102375.22;20768744;28;20049;-69
2022/01/17 11:13:06;;;;;;;31.33;14.02;;;;;;;3.45;96.77;102375.22;20910750;23;20103;-71
2022/01/17 11:23:07;;;;;;;27.88;13.75;;;;;;;3.79;94.50;102372.44;20851254;28;20054;-70
2022/01/17 11:33:10;;;;;;;28.25;13.18;;;;;;;3.82;95.40;102372.56;20866013;28;20048;-69
2022/01/17 11:43:32;;;;;;;29.42;12.85;;;;;;;3.99;94.43;102349.97;20864992;28;20427;-70
2022/01/17 11:53:41;;;;;;;27.15;12.68;;;;;;;4.18;93.17;102303.25;20859158;28;20053;-70
2022/01/17 12:03:56;;;;;;;26.58;11.45;;;;;;;4.34;92.71;102284.00;20859572;28;20057;-72
2022/01/17 12:14:17;;;;;;;;;;;;;;;4.36;92.99;102324.75;20855872;28;20057;-68
2022/01/17 12:24:31;;;;;;;26.60;11.98;;;;;;;4.53;91.54;102324.53;20860877;28;19943;-70
2022/01/17 12:34:40;;;;;;;28.33;12.52;;;;;;;4.61;90.50;102290.28;20854119;28;20458;-68
2022/01/17 12:44:44;;;;;;;24.60;11.38;;;;;;;4.44;92.16;102277.47;20858758;28;20439;-68
2022/01/17 12:54:48;;;;;;;24.10;12.32;;;;;;;4.38;92.19;102286.78;20859942;28;20487;-67
2022/01/17 13:04:49;;;;;;;21.13;10.40;;;;;;;4.43;91.56;102293.84;20852654;28;20111;-68
2022/01/17 13:14:56;;;;;;;20.63;10.52;;;;;;;4.50;91.54;102267.31;20855497;28;20179;-68
2022/01/17 13:25:03;;;;;;;20.17;10.75;;;;;;;4.42;91.84;102271.34;20856272;28;20487;-66
2022/01/17 13:35:06;;;;;;;26.02;11.77;;;;;;;4.36;93.40;102262.50;20853842;28;20076;-66
2022/01/17 13:45:34;;;;;;;21.33;10.45;;;;;;;4.28;93.82;102222.41;20853934;28;20521;-66
2022/01/17 13:55:41;;;;;;;24.42;10.48;;;;;;;4.47;92.17;102220.53;20853255;28;20203;-66
2022/01/17 14:05:47;;;;;;;20.95;10.77;;;;;;;4.46;93.37;102229.16;20849913;28;20048;-67
2022/01/17 14:15:49;;;;;;;21.05;11.05;;;;;;;4.28;94.40;102224.13;20851614;28;20051;-66
2022/01/17 14:25:50;;;;;;;24.70;11.73;;;;;;;4.40;93.68;102240.16;20850235;28;20131;-66
2022/01/17 14:36:13;;;;;;;25.55;11.88;;;;;;;4.23;94.61;102275.78;20848796;28;20053;-65
2022/01/17 14:46:15;;;;;;;25.67;12.10;;;;;;;4.18;95.34;102282.50;20843153;28;20049;-66
2022/01/17 15:06:44;;;;;;;28.48;14.25;;;;;;;4.13;95.69;102267.59;20864443;28;20045;-66
2022/01/17 15:16:46;;;;;;;28.20;13.82;;;;;;;4.08;96.27;102280.38;20863099;28;20044;-66
2022/01/17 15:26:47;;;;;;;28.73;13.45;;;;;;;4.03;97.18;102297.44;20862225;28;20136;-66
2022/01/17 15:36:49;;;;;;;29.52;13.98;;;;;;;4.06;96.90;102279.41;20860151;28;20076;-66
2022/01/17 15:46:50;;;;;;;28.45;14.38;;;;;;;3.92;97.85;102306.47;20862402;28;20049;-66
2022/01/17 15:56:53;;;;;;;28.02;14.07;;;;;;;3.92;98.68;102304.75;20860025;28;20131;-66
2022/01/17 16:06:54;;;;;;;37.95;17.55;;;;;;;3.97;99.57;102304.94;20862665;28;20395;-67
2022/01/17 16:16:56;;;;;;;28.42;14.77;;;;;;;3.87;100.00;102314.03;20860928;28;20049;-68
2022/01/17 16:26:57;;;;;;;37.63;17.75;;;;;;;3.89;99.96;102316.72;20858688;28;20053;-65
2022/01/17 16:36:59;;;;;;;35.35;17.20;;;;;;;3.80;100.00;102331.03;20856396;28;20099;-65
2022/01/17 16:47:01;;;;;;;32.33;15.30;;;;;;;3.77;100.00;102323.13;20857954;28;20076;-69
2022/01/17 16:57:03;;;;;;;32.03;16.35;;;;;;;3.81;100.00;102344.88;20857291;28;20136;-69
2022/01/17 17:07:04;;;;;;;36.28;17.70;;;;;;;3.81;100.00;102357.84;20946877;23;20045;-71
2022/01/17 17:17:06;;;;;;;39.45;18.85;;;;;;;3.82;100.00;102350.13;20843944;28;20053;-70
2022/01/17 17:27:07;;;;;;;36.60;17.42;;;;;;;3.73;100.00;102369.56;20843206;28;20045;-70
2022/01/17 17:37:09;;;;;;;37.13;18.77;;;;;;;3.80;100.00;102356.94;20843491;28;20045;-70
2022/01/17 17:47:12;;;;;;;34.67;17.50;;;;;;;3.83;100.00;102374.31;20853280;28;20049;-70
2022/01/17 17:57:13;;;;;;;31.75;15.95;;;;;;;3.80;100.00;102382.84;20849176;28;20495;-70
2022/01/17 18:07:15;;;;;;;36.20;16.88;;;;;;;3.84;100.00;102396.84;20847610;28;20423;-70
2022/01/17 18:17:16;;;;;;;29.98;15.35;;;;;;;3.85;100.00;102396.00;20850736;28;20198;-71
2022/01/17 18:27:18;;;;;;;39.30;19.38;;;;;;;3.80;100.00;102376.78;20851144;28;20053;-70
2022/01/17 18:37:20;;;;;;;32.00;15.55;;;;;;;3.86;100.00;102382.22;20850324;28;20411;-70
2022/01/17 18:47:22;;;;;;;33.22;17.50;;;;;;;3.82;100.00;102381.22;20848780;28;20056;-71
2022/01/17 18:57:23;;;;;;;40.53;20.42;;;;;;;3.78;100.00;102393.97;20850716;28;20065;-72
2022/01/17 19:07:25;;;;;;;43.67;20.55;;;;;;;3.81;100.00;102399.28;20848399;28;20114;-69
2022/01/17 19:17:37;;;;;;;38.13;19.30;;;;;;;3.78;100.00;102410.38;20846076;28;20486;-70
2022/01/17 19:27:39;;;;;;;38.70;18.35;;;;;;;3.78;100.00;102422.47;20850157;28;20049;-70
2022/01/17 19:37:40;;;;;;;37.20;18.20;;;;;;;3.82;100.00;102440.81;20845892;28;20048;-70
2022/01/17 19:48:02;;;;;;;33.40;18.15;;;;;;;3.83;100.00;102454.66;20857644;28;20604;-69
2022/01/17 19:58:05;;;;;;;33.72;18.02;;;;;;;3.76;100.00;102458.69;20857775;28;20084;-70
2022/01/17 20:08:07;;;;;;;38.50;20.13;;;;;;;3.77;100.00;102450.06;20856428;28;20115;-72
2022/01/17 20:18:11;;;;;;;36.47;18.53;;;;;;;3.66;100.00;102451.31;20861511;28;20075;-71
2022/01/17 20:28:14;;;;;;;41.13;21.42;;;;;;;3.63;100.00;102463.22;20860449;28;20041;-73
2022/01/17 20:38:19;;;;;;;36.90;18.67;;;;;;;3.64;100.00;102459.81;20856980;28;20425;-73
2022/01/17 20:48:21;;;;;;;41.80;20.95;;;;;;;3.54;100.00;102467.16;20856745;28;20045;-74
2022/01/17 20:58:23;;;;;;;39.45;20.63;;;;;;;3.62;100.00;102480.47;20855584;28;20061;-75
2022/01/17 21:08:25;;;;;;;36.05;18.40;;;;;;;3.55;100.00;102483.63;20854706;28;20046;-75
2022/01/17 21:18:26;;;;;;;45.20;22.83;;;;;;;3.60;100.00;102476.94;20864886;28;20052;-74
2022/01/17 21:28:28;;;;;;;44.13;22.58;;;;;;;3.54;100.00;102479.22;20855664;28;20513;-78
2022/01/17 21:38:30;;;;;;;52.05;24.02;;;;;;;3.57;100.00;102462.13;20854886;28;20134;-73
2022/01/17 21:48:31;;;;;;;47.30;23.75;;;;;;;3.53;100.00;102464.50;20856317;28;20045;-78
2022/01/17 21:58:32;;;;;;;45.13;23.50;;;;;;;3.53;100.00;102449.84;20855438;28;20049;-76
2022/01/17 22:08:34;;;;;;;41.53;21.13;;;;;;;3.51;100.00;102441.13;20851808;28;20511;-76
2022/01/17 22:18:40;;;;;;;38.17;20.27;;;;;;;3.48;100.00;102440.09;20853311;28;20041;-74
2022/01/17 22:28:42;;;;;;;38.85;19.45;;;;;;;3.49;100.00;102450.53;20851257;28;20060;-75
2022/01/17 22:38:44;;;;;;;41.75;20.15;;;;;;;3.51;100.00;102451.50;20847919;28;20061;-71
2022/01/17 22:48:47;;;;;;;37.85;19.88;;;;;;;3.50;100.00;102459.22;20850552;28;20056;-72
2022/01/17 22:58:48;;;;;;;43.17;20.95;;;;;;;3.56;100.00;102454.31;20845208;28;20060;-73
2022/01/17 23:08:50;;;;;;;38.13;20.15;;;;;;;3.57;100.00;102451.78;20926398;23;20518;-72
2022/01/17 23:19:02;;;;;;;47.88;22.83;;;;;;;3.58;100.00;102442.28;20862263;28;20050;-74
2022/01/17 23:29:08;;;;;;;45.70;23.02;;;;;;;3.56;100.00;102431.00;20874468;28;20055;-73
2022/01/17 23:39:13;;;;;;;44.30;22.30;;;;;;;3.48;100.00;102437.50;20869684;28;20045;-71
2022/01/17 23:49:15;;;;;;;43.53;21.02;;;;;;;3.52;100.00;102435.13;20871786;28;20052;-71
2022/01/17 23:59:21;;;;;;;44.00;21.35;;;;;;;3.46;100.00;102433.97;20867521;28;20049;-72
